sensor_id;sensor_type;location;lat;lon;timestamp;pressure;altitude;pressure_sealevel;temperature;humidity
64053;BME280;50299;49.524;8.536;2023-11-21T00:01:25;99840.06;;;6.38;78.69
64053;BME280;50299;49.524;8.536;2023-11-21T00:03:51;99841.44;;;6.58;78.35
64053;BME280;50299;49.524;8.536;2023-11-21T00:06:21;99849.66;;;6.50;78.25
64053;BME280;50299;49.524;8.536;2023-11-21T00:08:49;99840.13;;;6.56;78.14
64053;BME280;50299;49.524;8.536;2023-11-21T00:11:16;99842.59;;;6.66;78.15
64053;BME280;50299;49.524;8.536;2023-11-21T00:13:42;99839.16;;;6.60;78.03
64053;BME280;50299;49.524;8.536;2023-11-21T00:16:10;99843.84;;;6.60;77.37
64053;BME280;50299;49.524;8.536;2023-11-21T00:18:37;99844.84;;;6.64;77.78
64053;BME280;50299;49.524;8.536;2023-11-21T00:21:03;99841.66;;;6.71;77.23
64053;BME280;50299;49.524;8.536;2023-11-21T00:23:30;99851.97;;;6.74;77.50
64053;BME280;50299;49.524;8.536;2023-11-21T00:25:56;99844.41;;;6.79;77.69
64053;BME280;50299;49.524;8.536;2023-11-21T00:28:23;99844.41;;;6.79;77.08
64053;BME280;50299;49.524;8.536;2023-11-21T00:30:51;99835.50;;;6.74;77.04
64053;BME280;50299;49.524;8.536;2023-11-21T00:33:17;99836.81;;;6.76;77.36
64053;BME280;50299;49.524;8.536;2023-11-21T00:35:44;99838.75;;;6.76;76.78
64053;BME280;50299;49.524;8.536;2023-11-21T00:38:10;99836.13;;;6.62;77.33
64053;BME280;50299;49.524;8.536;2023-11-21T00:40:36;99823.84;;;6.68;77.58
64053;BME280;50299;49.524;8.536;2023-11-21T00:43:04;99828.38;;;6.73;77.38
64053;BME280;50299;49.524;8.536;2023-11-21T00:45:34;99831.63;;;6.66;77.68
64053;BME280;50299;49.524;8.536;2023-11-21T00:48:02;99830.03;;;6.82;77.61
64053;BME280;50299;49.524;8.536;2023-11-21T00:50:31;99833.56;;;6.74;77.54
64053;BME280;50299;49.524;8.536;2023-11-21T00:52:57;99835.81;;;6.72;77.36
64053;BME280;50299;49.524;8.536;2023-11-21T00:55:24;99832.09;;;6.68;77.27
64053;BME280;50299;49.524;8.536;2023-11-21T00:57:52;99833.88;;;6.73;77.71
64053;BME280;50299;49.524;8.536;2023-11-21T01:00:22;99835.66;;;6.77;77.57
64053;BME280;50299;49.524;8.536;2023-11-21T01:02:49;99835.53;;;6.82;77.35
64053;BME280;50299;49.524;8.536;2023-11-21T01:05:16;99837.28;;;6.78;76.99
64053;BME280;50299;49.524;8.536;2023-11-21T01:07:42;99836.03;;;6.84;76.93
64053;BME280;50299;49.524;8.536;2023-11-21T01:10:09;99836.69;;;6.99;76.81
64053;BME280;50299;49.524;8.536;2023-11-21T01:12:37;99849.94;;;6.88;76.78
64053;BME280;50299;49.524;8.536;2023-11-21T01:15:05;99845.44;;;6.92;76.74
64053;BME280;50299;49.524;8.536;2023-11-21T01:17:35;99839.16;;;7.00;76.73
64053;BME280;50299;49.524;8.536;2023-11-21T01:20:04;99846.88;;;6.98;76.66
64053;BME280;50299;49.524;8.536;2023-11-21T01:22:41;99851.09;;;6.96;76.96
64053;BME280;50299;49.524;8.536;2023-11-21T01:25:07;99851.72;;;6.93;76.70
64053;BME280;50299;49.524;8.536;2023-11-21T01:27:36;99861.28;;;6.95;77.19
64053;BME280;50299;49.524;8.536;2023-11-21T01:30:03;99854.16;;;6.94;76.38
64053;BME280;50299;49.524;8.536;2023-11-21T01:32:30;99851.88;;;6.87;77.06
64053;BME280;50299;49.524;8.536;2023-11-21T01:34:57;99850.28;;;6.95;76.57
64053;BME280;50299;49.524;8.536;2023-11-21T01:37:24;99850.59;;;7.02;76.56
64053;BME280;50299;49.524;8.536;2023-11-21T01:39:54;99847.56;;;7.04;75.85
64053;BME280;50299;49.524;8.536;2023-11-21T01:42:23;99839.44;;;6.99;76.55
64053;BME280;50299;49.524;8.536;2023-11-21T01:44:52;99850.75;;;6.97;76.66
64053;BME280;50299;49.524;8.536;2023-11-21T01:47:20;99852.09;;;7.08;76.59
64053;BME280;50299;49.524;8.536;2023-11-21T01:49:47;99850.63;;;7.11;76.21
64053;BME280;50299;49.524;8.536;2023-11-21T01:52:14;99850.16;;;7.09;76.05
64053;BME280;50299;49.524;8.536;2023-11-21T01:54:41;99850.00;;;7.14;75.88
64053;BME280;50299;49.524;8.536;2023-11-21T01:57:11;99842.56;;;7.14;76.00
64053;BME280;50299;49.524;8.536;2023-11-21T01:59:38;99849.34;;;7.17;75.90
64053;BME280;50299;49.524;8.536;2023-11-21T02:02:06;99857.59;;;7.17;75.78
64053;BME280;50299;49.524;8.536;2023-11-21T02:04:33;99845.81;;;7.17;75.72
64053;BME280;50299;49.524;8.536;2023-11-21T02:07:00;99848.22;;;7.09;76.08
64053;BME280;50299;49.524;8.536;2023-11-21T02:09:27;99845.63;;;7.04;75.93
64053;BME280;50299;49.524;8.536;2023-11-21T02:11:55;99847.41;;;7.09;75.76
64053;BME280;50299;49.524;8.536;2023-11-21T02:14:27;99842.25;;;7.16;75.78
64053;BME280;50299;49.524;8.536;2023-11-21T02:16:54;99850.50;;;7.16;76.33
64053;BME280;50299;49.524;8.536;2023-11-21T02:19:23;99847.91;;;7.20;76.30
64053;BME280;50299;49.524;8.536;2023-11-21T02:21:52;99852.59;;;7.19;75.68
64053;BME280;50299;49.524;8.536;2023-11-21T02:24:20;99852.94;;;7.26;75.23
64053;BME280;50299;49.524;8.536;2023-11-21T02:26:47;99852.13;;;7.34;75.38
64053;BME280;50299;49.524;8.536;2023-11-21T02:29:14;99849.72;;;7.42;74.76
64053;BME280;50299;49.524;8.536;2023-11-21T02:31:43;99862.00;;;7.44;75.19
64053;BME280;50299;49.524;8.536;2023-11-21T02:34:15;99862.31;;;7.43;74.52
64053;BME280;50299;49.524;8.536;2023-11-21T02:36:42;99865.25;;;7.46;74.79
64053;BME280;50299;49.524;8.536;2023-11-21T02:39:10;99862.38;;;7.51;74.04
64053;BME280;50299;49.524;8.536;2023-11-21T02:41:38;99857.47;;;7.48;74.61
64053;BME280;50299;49.524;8.536;2023-11-21T02:44:06;99855.59;;;7.49;74.74
64053;BME280;50299;49.524;8.536;2023-11-21T02:46:34;99853.09;;;7.38;74.76
64053;BME280;50299;49.524;8.536;2023-11-21T02:49:04;99850.69;;;7.46;74.79
64053;BME280;50299;49.524;8.536;2023-11-21T02:51:35;99849.56;;;7.47;74.62
64053;BME280;50299;49.524;8.536;2023-11-21T02:54:01;99852.84;;;7.49;75.04
64053;BME280;50299;49.524;8.536;2023-11-21T02:56:32;99843.91;;;7.52;74.38
64053;BME280;50299;49.524;8.536;2023-11-21T02:58:59;99851.06;;;7.53;74.78
64053;BME280;50299;49.524;8.536;2023-11-21T03:01:26;99849.28;;;7.57;74.56
64053;BME280;50299;49.524;8.536;2023-11-21T03:03:56;99849.56;;;7.47;74.65
64053;BME280;50299;49.524;8.536;2023-11-21T03:06:23;99842.81;;;7.53;74.08
64053;BME280;50299;49.524;8.536;2023-11-21T03:08:50;99846.38;;;7.53;74.24
64053;BME280;50299;49.524;8.536;2023-11-21T03:11:17;99848.31;;;7.53;74.63
64053;BME280;50299;49.524;8.536;2023-11-21T03:13:43;99848.44;;;7.56;74.14
64053;BME280;50299;49.524;8.536;2023-11-21T03:16:10;99853.13;;;7.56;73.92
64053;BME280;50299;49.524;8.536;2023-11-21T03:18:38;99844.59;;;7.57;74.26
64053;BME280;50299;49.524;8.536;2023-11-21T03:21:05;99846.81;;;7.64;73.73
64053;BME280;50299;49.524;8.536;2023-11-21T03:23:32;99853.97;;;7.65;73.31
64053;BME280;50299;49.524;8.536;2023-11-21T03:25:58;99852.03;;;7.57;74.12
64053;BME280;50299;49.524;8.536;2023-11-21T03:28:28;99856.06;;;7.59;73.50
64053;BME280;50299;49.524;8.536;2023-11-21T03:30:57;99859.13;;;7.58;74.47
64053;BME280;50299;49.524;8.536;2023-11-21T03:33:32;99856.69;;;7.56;73.63
64053;BME280;50299;49.524;8.536;2023-11-21T03:35:58;99866.41;;;7.54;73.83
64053;BME280;50299;49.524;8.536;2023-11-21T03:38:25;99865.13;;;7.51;73.99
64053;BME280;50299;49.524;8.536;2023-11-21T03:40:51;99859.13;;;7.49;74.21
64053;BME280;50299;49.524;8.536;2023-11-21T03:43:18;99860.22;;;7.48;74.47
64053;BME280;50299;49.524;8.536;2023-11-21T03:45:44;99872.91;;;7.49;74.45
64053;BME280;50299;49.524;8.536;2023-11-21T03:48:12;99863.63;;;7.45;74.22
64053;BME280;50299;49.524;8.536;2023-11-21T03:50:39;99859.09;;;7.40;74.50
64053;BME280;50299;49.524;8.536;2023-11-21T03:53:05;99870.09;;;7.40;74.86
64053;BME280;50299;49.524;8.536;2023-11-21T03:55:31;99866.59;;;7.49;74.49
64053;BME280;50299;49.524;8.536;2023-11-21T03:57:58;99867.41;;;7.58;74.45
64053;BME280;50299;49.524;8.536;2023-11-21T04:00:27;99866.25;;;7.59;73.99
64053;BME280;50299;49.524;8.536;2023-11-21T04:02:56;99877.09;;;7.64;73.79
64053;BME280;50299;49.524;8.536;2023-11-21T04:05:22;99871.75;;;7.59;73.53
64053;BME280;50299;49.524;8.536;2023-11-21T04:07:50;99875.94;;;7.56;73.91
64053;BME280;50299;49.524;8.536;2023-11-21T04:10:19;99877.38;;;7.45;74.28
64053;BME280;50299;49.524;8.536;2023-11-21T04:12:46;99877.06;;;7.47;74.44
64053;BME280;50299;49.524;8.536;2023-11-21T04:15:12;99881.09;;;7.40;74.30
64053;BME280;50299;49.524;8.536;2023-11-21T04:17:41;99874.47;;;7.42;74.11
64053;BME280;50299;49.524;8.536;2023-11-21T04:20:08;99873.97;;;7.39;73.98
64053;BME280;50299;49.524;8.536;2023-11-21T04:22:39;99877.22;;;7.42;74.24
64053;BME280;50299;49.524;8.536;2023-11-21T04:25:11;99877.38;;;7.45;73.74
64053;BME280;50299;49.524;8.536;2023-11-21T04:27:41;99881.16;;;7.49;74.06
64053;BME280;50299;49.524;8.536;2023-11-21T04:30:11;99884.84;;;7.45;74.10
64053;BME280;50299;49.524;8.536;2023-11-21T04:32:37;99884.84;;;7.45;74.18
64053;BME280;50299;49.524;8.536;2023-11-21T04:35:06;99879.47;;;7.39;74.45
64053;BME280;50299;49.524;8.536;2023-11-21T04:37:32;99894.19;;;7.44;74.30
64053;BME280;50299;49.524;8.536;2023-11-21T04:39:59;99897.31;;;7.51;73.90
64053;BME280;50299;49.524;8.536;2023-11-21T04:42:25;99896.31;;;7.47;73.68
64053;BME280;50299;49.524;8.536;2023-11-21T04:44:54;99895.69;;;7.50;74.17
64053;BME280;50299;49.524;8.536;2023-11-21T04:47:21;99903.94;;;7.50;74.01
64053;BME280;50299;49.524;8.536;2023-11-21T04:49:48;99898.94;;;7.52;73.72
64053;BME280;50299;49.524;8.536;2023-11-21T04:52:14;99898.13;;;7.51;73.81
64053;BME280;50299;49.524;8.536;2023-11-21T04:54:41;99913.19;;;7.54;74.24
64053;BME280;50299;49.524;8.536;2023-11-21T04:57:07;99908.81;;;7.61;74.16
64053;BME280;50299;49.524;8.536;2023-11-21T04:59:34;99912.56;;;7.66;74.38
64053;BME280;50299;49.524;8.536;2023-11-21T05:02:01;99914.63;;;7.69;73.96
64053;BME280;50299;49.524;8.536;2023-11-21T05:04:28;99912.06;;;7.72;74.10
64053;BME280;50299;49.524;8.536;2023-11-21T05:06:54;99918.53;;;7.68;74.08
64053;BME280;50299;49.524;8.536;2023-11-21T05:09:21;99928.56;;;7.72;73.41
64053;BME280;50299;49.524;8.536;2023-11-21T05:11:48;99921.28;;;7.76;73.97
64053;BME280;50299;49.524;8.536;2023-11-21T05:14:15;99925.81;;;7.72;73.63
64053;BME280;50299;49.524;8.536;2023-11-21T05:16:41;99926.31;;;7.74;73.56
64053;BME280;50299;49.524;8.536;2023-11-21T05:19:11;99929.22;;;7.78;73.69
64053;BME280;50299;49.524;8.536;2023-11-21T05:21:39;99934.91;;;7.81;73.64
64053;BME280;50299;49.524;8.536;2023-11-21T05:24:06;99930.19;;;7.82;73.17
64053;BME280;50299;49.524;8.536;2023-11-21T05:26:33;99932.63;;;7.83;73.24
64053;BME280;50299;49.524;8.536;2023-11-21T05:28:59;99938.75;;;7.80;73.60
64053;BME280;50299;49.524;8.536;2023-11-21T05:31:26;99937.47;;;7.86;74.21
64053;BME280;50299;49.524;8.536;2023-11-21T05:33:53;99946.88;;;7.85;73.25
64053;BME280;50299;49.524;8.536;2023-11-21T05:36:19;99954.47;;;7.88;73.37
64053;BME280;50299;49.524;8.536;2023-11-21T05:38:46;99959.00;;;7.93;73.03
64053;BME280;50299;49.524;8.536;2023-11-21T05:41:15;99960.94;;;7.93;73.19
64053;BME280;50299;49.524;8.536;2023-11-21T05:43:41;99961.13;;;7.96;73.48
64053;BME280;50299;49.524;8.536;2023-11-21T05:46:08;99963.56;;;7.98;73.58
64053;BME280;50299;49.524;8.536;2023-11-21T05:48:35;99965.66;;;8.01;72.97
64053;BME280;50299;49.524;8.536;2023-11-21T05:51:06;99962.59;;;7.94;72.79
64053;BME280;50299;49.524;8.536;2023-11-21T05:53:34;99967.59;;;7.92;73.11
64053;BME280;50299;49.524;8.536;2023-11-21T05:56:00;99973.09;;;7.92;73.72
64053;BME280;50299;49.524;8.536;2023-11-21T05:58:26;99970.34;;;7.92;73.29
64053;BME280;50299;49.524;8.536;2023-11-21T06:00:53;99980.22;;;7.93;72.93
64053;BME280;50299;49.524;8.536;2023-11-21T06:03:19;99980.88;;;7.89;72.50
64053;BME280;50299;49.524;8.536;2023-11-21T06:05:47;99984.75;;;7.88;73.27
64053;BME280;50299;49.524;8.536;2023-11-21T06:08:14;99981.34;;;7.92;72.93
64053;BME280;50299;49.524;8.536;2023-11-21T06:10:43;99990.25;;;7.88;73.12
64053;BME280;50299;49.524;8.536;2023-11-21T06:13:10;99991.56;;;7.91;72.86
64053;BME280;50299;49.524;8.536;2023-11-21T06:15:37;99995.75;;;7.88;72.63
64053;BME280;50299;49.524;8.536;2023-11-21T06:18:03;100002.38;;;7.87;73.25
64053;BME280;50299;49.524;8.536;2023-11-21T06:20:31;99998.50;;;7.88;73.58
64053;BME280;50299;49.524;8.536;2023-11-21T06:22:58;100002.56;;;7.91;73.11
64053;BME280;50299;49.524;8.536;2023-11-21T06:25:24;100005.16;;;7.87;72.74
64053;BME280;50299;49.524;8.536;2023-11-21T06:28:25;100005.59;;;7.81;72.62
64053;BME280;50299;49.524;8.536;2023-11-21T06:30:52;100012.75;;;7.82;71.93
64053;BME280;50299;49.524;8.536;2023-11-21T06:33:19;100009.84;;;7.78;71.53
64053;BME280;50299;49.524;8.536;2023-11-21T06:35:48;100020.00;;;7.69;72.33
64053;BME280;50299;49.524;8.536;2023-11-21T06:38:14;100018.84;;;7.61;72.37
64053;BME280;50299;49.524;8.536;2023-11-21T06:40:43;100025.06;;;7.36;73.59
64053;BME280;50299;49.524;8.536;2023-11-21T06:43:11;100023.31;;;7.09;73.50
64053;BME280;50299;49.524;8.536;2023-11-21T06:45:38;100024.84;;;7.24;74.67
64053;BME280;50299;49.524;8.536;2023-11-21T06:48:07;100041.28;;;7.15;74.16
64053;BME280;50299;49.524;8.536;2023-11-21T06:50:33;100036.91;;;7.14;75.36
64053;BME280;50299;49.524;8.536;2023-11-21T06:53:00;100041.81;;;7.26;75.42
64053;BME280;50299;49.524;8.536;2023-11-21T06:55:29;100044.59;;;7.34;74.80
64053;BME280;50299;49.524;8.536;2023-11-21T06:57:55;100048.19;;;7.44;73.93
64053;BME280;50299;49.524;8.536;2023-11-21T07:00:22;100052.25;;;7.46;74.33
64053;BME280;50299;49.524;8.536;2023-11-21T07:02:48;100061.84;;;7.49;73.26
64053;BME280;50299;49.524;8.536;2023-11-21T07:05:15;100059.34;;;7.38;73.49
64053;BME280;50299;49.524;8.536;2023-11-21T07:07:50;100063.81;;;7.26;73.82
64053;BME280;50299;49.524;8.536;2023-11-21T07:10:22;100058.63;;;6.93;75.09
64053;BME280;50299;49.524;8.536;2023-11-21T07:12:49;100063.31;;;6.93;75.64
64053;BME280;50299;49.524;8.536;2023-11-21T07:15:17;100064.31;;;6.74;77.20
64053;BME280;50299;49.524;8.536;2023-11-21T07:17:46;100067.69;;;6.71;77.70
64053;BME280;50299;49.524;8.536;2023-11-21T07:20:15;100073.19;;;6.71;76.68
64053;BME280;50299;49.524;8.536;2023-11-21T07:22:43;100077.00;;;6.84;77.28
64053;BME280;50299;49.524;8.536;2023-11-21T07:25:10;100088.28;;;7.05;76.98
64053;BME280;50299;49.524;8.536;2023-11-21T07:27:36;100084.78;;;7.13;76.64
64053;BME280;50299;49.524;8.536;2023-11-21T07:30:04;100092.41;;;7.16;75.91
64053;BME280;50299;49.524;8.536;2023-11-21T07:32:36;100096.72;;;7.08;75.13
64053;BME280;50299;49.524;8.536;2023-11-21T07:35:06;100089.72;;;7.02;76.85
64053;BME280;50299;49.524;8.536;2023-11-21T07:37:34;100088.28;;;7.05;76.81
64053;BME280;50299;49.524;8.536;2023-11-21T07:40:06;100096.03;;;7.34;75.79
64053;BME280;50299;49.524;8.536;2023-11-21T07:42:38;100091.53;;;6.84;78.62
64053;BME280;50299;49.524;8.536;2023-11-21T07:45:05;100103.81;;;7.09;82.94
64053;BME280;50299;49.524;8.536;2023-11-21T07:47:33;100101.28;;;7.13;80.29
64053;BME280;50299;49.524;8.536;2023-11-21T07:50:02;100107.72;;;7.08;80.75
64053;BME280;50299;49.524;8.536;2023-11-21T07:52:32;100109.13;;;6.61;84.55
64053;BME280;50299;49.524;8.536;2023-11-21T07:54:58;100112.38;;;6.27;83.65
64053;BME280;50299;49.524;8.536;2023-11-21T07:57:25;100108.31;;;6.38;87.33
64053;BME280;50299;49.524;8.536;2023-11-21T07:59:52;100115.81;;;6.19;91.53
64053;BME280;50299;49.524;8.536;2023-11-21T08:02:20;100112.78;;;6.34;95.93
64053;BME280;50299;49.524;8.536;2023-11-21T08:04:46;100114.72;;;6.33;96.21
64053;BME280;50299;49.524;8.536;2023-11-21T08:07:17;100125.06;;;6.36;96.77
64053;BME280;50299;49.524;8.536;2023-11-21T08:09:43;100120.19;;;6.70;100.00
64053;BME280;50299;49.524;8.536;2023-11-21T08:12:10;100120.50;;;6.32;95.72
64053;BME280;50299;49.524;8.536;2023-11-21T08:14:37;100120.44;;;6.59;99.54
64053;BME280;50299;49.524;8.536;2023-11-21T08:17:05;100130.50;;;6.64;97.64
64053;BME280;50299;49.524;8.536;2023-11-21T08:19:34;100127.41;;;6.65;95.70
64053;BME280;50299;49.524;8.536;2023-11-21T08:22:08;100135.56;;;6.71;96.50
64053;BME280;50299;49.524;8.536;2023-11-21T08:24:35;100146.81;;;6.47;91.62
64053;BME280;50299;49.524;8.536;2023-11-21T08:27:02;100143.34;;;6.55;93.21
64053;BME280;50299;49.524;8.536;2023-11-21T08:29:33;100142.94;;;6.48;91.88
64053;BME280;50299;49.524;8.536;2023-11-21T08:32:06;100146.47;;;6.62;87.90
64053;BME280;50299;49.524;8.536;2023-11-21T08:34:37;100151.13;;;6.61;90.23
64053;BME280;50299;49.524;8.536;2023-11-21T08:37:04;100158.69;;;6.56;93.99
64053;BME280;50299;49.524;8.536;2023-11-21T08:39:33;100154.53;;;6.58;94.44
64053;BME280;50299;49.524;8.536;2023-11-21T08:42:00;100159.13;;;6.22;89.51
64053;BME280;50299;49.524;8.536;2023-11-21T08:44:35;100166.19;;;6.64;90.29
64053;BME280;50299;49.524;8.536;2023-11-21T08:47:04;100168.53;;;6.93;83.08
64053;BME280;50299;49.524;8.536;2023-11-21T08:49:40;100183.28;;;6.97;84.40
64053;BME280;50299;49.524;8.536;2023-11-21T08:52:07;100170.34;;;6.98;82.28
64053;BME280;50299;49.524;8.536;2023-11-21T08:54:37;100180.22;;;7.21;81.09
64053;BME280;50299;49.524;8.536;2023-11-21T08:57:09;100181.03;;;7.22;80.12
64053;BME280;50299;49.524;8.536;2023-11-21T08:59:43;100184.03;;;6.89;80.82
64053;BME280;50299;49.524;8.536;2023-11-21T09:02:12;100192.59;;;7.10;81.96
64053;BME280;50299;49.524;8.536;2023-11-21T09:04:44;100198.81;;;7.15;81.84
64053;BME280;50299;49.524;8.536;2023-11-21T09:07:14;100199.41;;;7.12;81.41
64053;BME280;50299;49.524;8.536;2023-11-21T09:09:43;100200.56;;;7.11;80.37
64053;BME280;50299;49.524;8.536;2023-11-21T09:12:12;100200.47;;;7.03;80.03
64053;BME280;50299;49.524;8.536;2023-11-21T09:14:42;100199.22;;;7.31;78.81
64053;BME280;50299;49.524;8.536;2023-11-21T09:17:12;100202.81;;;7.32;78.35
64053;BME280;50299;49.524;8.536;2023-11-21T09:19:38;100204.66;;;7.45;78.56
64053;BME280;50299;49.524;8.536;2023-11-21T09:22:06;100215.28;;;7.38;76.84
64053;BME280;50299;49.524;8.536;2023-11-21T09:24:37;100214.59;;;7.32;76.46
64053;BME280;50299;49.524;8.536;2023-11-21T09:27:14;100221.78;;;7.20;78.24
64053;BME280;50299;49.524;8.536;2023-11-21T09:29:43;100226.56;;;6.92;81.16
64053;BME280;50299;49.524;8.536;2023-11-21T09:32:16;100232.59;;;7.16;79.17
64053;BME280;50299;49.524;8.536;2023-11-21T09:34:46;100232.56;;;6.94;78.00
64053;BME280;50299;49.524;8.536;2023-11-21T09:37:15;100237.56;;;7.14;78.85
64053;BME280;50299;49.524;8.536;2023-11-21T09:39:45;100242.19;;;7.05;77.94
64053;BME280;50299;49.524;8.536;2023-11-21T09:42:40;100242.81;;;7.02;78.28
64053;BME280;50299;49.524;8.536;2023-11-21T09:45:18;100243.41;;;7.12;79.00
64053;BME280;50299;49.524;8.536;2023-11-21T09:47:52;100240.66;;;7.35;79.41
64053;BME280;50299;49.524;8.536;2023-11-21T09:50:22;100245.00;;;7.50;77.16
64053;BME280;50299;49.524;8.536;2023-11-21T09:55:30;100264.03;;;6.87;80.87
64053;BME280;50299;49.524;8.536;2023-11-21T09:58:05;100262.72;;;7.21;79.08
64053;BME280;50299;49.524;8.536;2023-11-21T10:00:34;100267.28;;;7.48;79.39
64053;BME280;50299;49.524;8.536;2023-11-21T10:03:04;100264.94;;;7.55;78.15
64053;BME280;50299;49.524;8.536;2023-11-21T10:05:30;100262.00;;;7.52;79.07
64053;BME280;50299;49.524;8.536;2023-11-21T10:08:00;100274.22;;;7.46;76.66
64053;BME280;50299;49.524;8.536;2023-11-21T10:10:30;100267.59;;;7.47;79.68
64053;BME280;50299;49.524;8.536;2023-11-21T10:13:03;100274.66;;;7.39;81.41
64053;BME280;50299;49.524;8.536;2023-11-21T10:15:40;100272.50;;;7.13;86.28
64053;BME280;50299;49.524;8.536;2023-11-21T10:18:11;100275.13;;;7.19;88.95
64053;BME280;50299;49.524;8.536;2023-11-21T10:20:38;100273.97;;;7.33;85.00
64053;BME280;50299;49.524;8.536;2023-11-21T10:23:06;100270.88;;;7.49;81.37
64053;BME280;50299;49.524;8.536;2023-11-21T10:25:37;100274.91;;;7.29;81.53
64053;BME280;50299;49.524;8.536;2023-11-21T10:28:04;100273.00;;;7.52;81.22
64053;BME280;50299;49.524;8.536;2023-11-21T10:30:38;100277.00;;;7.68;79.46
64053;BME280;50299;49.524;8.536;2023-11-21T10:33:05;100270.75;;;7.54;76.66
64053;BME280;50299;49.524;8.536;2023-11-21T10:35:45;100271.41;;;7.37;79.28
64053;BME280;50299;49.524;8.536;2023-11-21T10:38:19;100282.19;;;7.11;78.87
64053;BME280;50299;49.524;8.536;2023-11-21T10:40:53;100286.66;;;7.07;79.47
64053;BME280;50299;49.524;8.536;2023-11-21T10:43:25;100283.16;;;7.29;79.13
64053;BME280;50299;49.524;8.536;2023-11-21T10:45:51;100287.13;;;7.23;81.96
64053;BME280;50299;49.524;8.536;2023-11-21T10:48:21;100293.13;;;6.88;85.16
64053;BME280;50299;49.524;8.536;2023-11-21T10:50:49;100296.59;;;6.80;88.96
64053;BME280;50299;49.524;8.536;2023-11-21T10:53:16;100297.38;;;7.08;94.86
64053;BME280;50299;49.524;8.536;2023-11-21T10:55:42;100305.75;;;7.03;92.20
64053;BME280;50299;49.524;8.536;2023-11-21T10:58:13;100303.94;;;6.71;90.80
64053;BME280;50299;49.524;8.536;2023-11-21T11:00:40;100302.69;;;6.77;95.80
64053;BME280;50299;49.524;8.536;2023-11-21T11:03:07;100305.53;;;6.86;90.27
64053;BME280;50299;49.524;8.536;2023-11-21T11:05:44;100306.47;;;6.95;88.75
64053;BME280;50299;49.524;8.536;2023-11-21T11:08:20;100303.44;;;7.19;93.07
64053;BME280;50299;49.524;8.536;2023-11-21T11:10:52;100303.41;;;7.33;89.11
64053;BME280;50299;49.524;8.536;2023-11-21T11:13:19;100297.81;;;6.74;87.44
64053;BME280;50299;49.524;8.536;2023-11-21T11:15:48;100296.84;;;7.20;87.17
64053;BME280;50299;49.524;8.536;2023-11-21T11:18:16;100293.84;;;7.30;90.46
64053;BME280;50299;49.524;8.536;2023-11-21T11:20:43;100304.34;;;6.51;83.99
64053;BME280;50299;49.524;8.536;2023-11-21T11:23:40;100295.09;;;7.10;92.56
64053;BME280;50299;49.524;8.536;2023-11-21T11:26:35;100302.53;;;7.10;87.67
64053;BME280;50299;49.524;8.536;2023-11-21T11:34:48;100294.50;;;7.50;82.83
64053;BME280;50299;49.524;8.536;2023-11-21T11:37:21;100289.75;;;7.64;83.71
64053;BME280;50299;49.524;8.536;2023-11-21T11:39:51;100300.13;;;7.45;77.30
64053;BME280;50299;49.524;8.536;2023-11-21T11:42:18;100297.78;;;7.38;82.58
64053;BME280;50299;49.524;8.536;2023-11-21T11:44:49;100301.81;;;7.77;81.58
64053;BME280;50299;49.524;8.536;2023-11-21T11:47:28;100305.44;;;7.63;80.03
64053;BME280;50299;49.524;8.536;2023-11-21T11:50:08;100299.31;;;7.67;79.77
64053;BME280;50299;49.524;8.536;2023-11-21T11:53:11;100309.28;;;8.07;79.93
64053;BME280;50299;49.524;8.536;2023-11-21T11:55:39;100304.13;;;8.46;79.91
64053;BME280;50299;49.524;8.536;2023-11-21T11:58:10;100308.41;;;8.29;76.49
64053;BME280;50299;49.524;8.536;2023-11-21T12:00:44;100313.66;;;8.08;75.07
64053;BME280;50299;49.524;8.536;2023-11-21T12:03:19;100317.38;;;8.35;77.50
64053;BME280;50299;49.524;8.536;2023-11-21T12:05:48;100308.78;;;8.68;78.24
64053;BME280;50299;49.524;8.536;2023-11-21T12:08:20;100311.69;;;8.71;76.29
64053;BME280;50299;49.524;8.536;2023-11-21T12:10:49;100324.03;;;8.82;73.91
64053;BME280;50299;49.524;8.536;2023-11-21T12:13:22;100316.88;;;8.33;74.03
64053;BME280;50299;49.524;8.536;2023-11-21T12:15:49;100317.94;;;8.63;73.94
64053;BME280;50299;49.524;8.536;2023-11-21T12:18:16;100320.56;;;8.28;74.50
64053;BME280;50299;49.524;8.536;2023-11-21T12:20:57;100325.91;;;7.71;75.14
64053;BME280;50299;49.524;8.536;2023-11-21T12:23:29;100322.97;;;8.21;73.28
64053;BME280;50299;49.524;8.536;2023-11-21T12:26:03;100330.19;;;8.39;72.88
64053;BME280;50299;49.524;8.536;2023-11-21T12:28:32;100325.13;;;8.33;72.85
64053;BME280;50299;49.524;8.536;2023-11-21T12:31:05;100323.47;;;8.63;74.09
64053;BME280;50299;49.524;8.536;2023-11-21T12:33:47;100320.19;;;8.52;71.83
64053;BME280;50299;49.524;8.536;2023-11-21T12:36:14;100331.47;;;8.73;73.43
64053;BME280;50299;49.524;8.536;2023-11-21T12:38:41;100331.25;;;8.61;72.02
64053;BME280;50299;49.524;8.536;2023-11-21T12:41:11;100333.72;;;8.71;70.66
64053;BME280;50299;49.524;8.536;2023-11-21T12:43:38;100330.25;;;8.57;69.00
64053;BME280;50299;49.524;8.536;2023-11-21T12:46:08;100336.97;;;8.33;71.83
64053;BME280;50299;49.524;8.536;2023-11-21T12:48:44;100343.03;;;8.53;73.10
64053;BME280;50299;49.524;8.536;2023-11-21T12:51:18;100338.13;;;8.72;68.73
64053;BME280;50299;49.524;8.536;2023-11-21T12:53:50;100347.50;;;8.71;68.19
64053;BME280;50299;49.524;8.536;2023-11-21T12:56:26;100348.03;;;8.82;71.33
64053;BME280;50299;49.524;8.536;2023-11-21T12:58:58;100350.56;;;9.18;69.67
64053;BME280;50299;49.524;8.536;2023-11-21T13:01:27;100350.53;;;9.01;66.87
64053;BME280;50299;49.524;8.536;2023-11-21T13:03:58;100349.50;;;8.88;70.63
64053;BME280;50299;49.524;8.536;2023-11-21T13:06:27;100354.28;;;9.05;67.74
64053;BME280;50299;49.524;8.536;2023-11-21T13:09:00;100358.41;;;8.76;67.14
64053;BME280;50299;49.524;8.536;2023-11-21T13:11:34;100351.84;;;9.12;67.41
64053;BME280;50299;49.524;8.536;2023-11-21T13:14:10;100357.34;;;9.12;67.80
64053;BME280;50299;49.524;8.536;2023-11-21T13:16:41;100355.78;;;8.40;66.16
64053;BME280;50299;49.524;8.536;2023-11-21T13:19:12;100365.28;;;8.56;68.24
64053;BME280;50299;49.524;8.536;2023-11-21T13:21:43;100365.19;;;8.39;70.13
64053;BME280;50299;49.524;8.536;2023-11-21T13:24:10;100365.72;;;8.81;68.93